createdAt,value
2022-11-06T01:01:08.821Z,99.90
2022-11-06T01:11:12.646Z,99.90
2022-11-06T01:16:12.496Z,99.90
2022-11-06T01:21:14.797Z,99.90
2022-11-06T01:23:45.713Z,99.90
2022-11-06T01:26:21.193Z,99.90
2022-11-06T01:28:57.979Z,99.90
2022-11-06T01:33:57.263Z,99.90
2022-11-06T01:38:58.305Z,99.90
2022-11-06T01:41:28.713Z,99.90
2022-11-06T01:46:28.279Z,99.90
2022-11-06T01:53:59.069Z,99.90
2022-11-06T02:03:59.196Z,99.90
2022-11-06T02:14:03.541Z,99.90
2022-11-06T03:28:25.038Z,99.90
2022-11-06T03:30:58.731Z,99.90
2022-11-06T03:36:04.363Z,99.90
2022-11-06T08:57:09.497Z,99.90
2022-11-06T09:12:09.769Z,94.90
2022-11-06T09:14:39.028Z,93.60
2022-11-06T09:17:07.936Z,88.70
2022-11-06T09:19:36.522Z,90.80
2022-11-06T09:22:05.071Z,85.50
2022-11-06T09:25:01.353Z,89.30
2022-11-06T09:27:23.800Z,80.10
2022-11-06T09:34:51.070Z,82.40
2022-11-06T09:37:19.811Z,78.50
2022-11-06T09:42:24.339Z,83.80
2022-11-06T09:45:03.992Z,78.80
2022-11-06T09:47:40.665Z,83.30
2022-11-06T09:50:16.898Z,87.80
2022-11-06T09:52:50.407Z,91.20
2022-11-06T09:55:22.982Z,92.80
2022-11-06T09:57:56.472Z,93.40
2022-11-06T10:00:26.429Z,94.30
2022-11-06T10:02:56.595Z,95.30
2022-11-06T10:05:28.020Z,95.20
2022-11-06T10:07:59.346Z,95.20
2022-11-06T10:10:36.222Z,94.70
2022-11-06T10:13:19.008Z,93.90
2022-11-06T10:15:53.400Z,93.50
2022-11-06T10:18:31.383Z,90.30
2022-11-06T10:21:10.964Z,90.00
2022-11-06T10:23:49.560Z,89.80
2022-11-06T10:26:19.757Z,90.80
2022-11-06T10:29:24.597Z,91.30
2022-11-06T10:32:06.949Z,92.40
2022-11-06T10:34:39.049Z,90.80
2022-11-06T10:37:12.329Z,90.90
2022-11-06T10:42:15.977Z,92.30
2022-11-06T10:44:48.538Z,92.30
2022-11-06T10:47:21.367Z,90.50
2022-11-06T10:49:52.664Z,91.20
2022-11-06T10:52:39.242Z,91.70
2022-11-06T10:55:42.961Z,92.20
2022-11-06T10:58:14.400Z,92.60
2022-11-06T11:00:43.838Z,92.40
2022-11-06T11:03:24.483Z,91.80
2022-11-06T11:08:34.663Z,92.20
2022-11-06T11:11:05.244Z,92.10
2022-11-06T11:13:34.450Z,91.10
2022-11-06T11:16:05.102Z,91.90
2022-11-06T11:18:35.481Z,92.30
2022-11-06T11:21:09.336Z,91.50
2022-11-06T11:26:24.164Z,90.00
2022-11-06T11:28:55.499Z,90.40
2022-11-06T11:31:31.426Z,90.30
2022-11-06T11:34:03.907Z,91.80
2022-11-06T11:36:51.780Z,90.30
2022-11-06T11:39:22.273Z,90.60
2022-11-06T11:44:20.697Z,91.50
2022-11-06T11:46:51.256Z,91.10
2022-11-06T11:49:31.837Z,91.50
2022-11-06T11:52:02.296Z,91.00
2022-11-06T11:54:33.475Z,91.60
2022-11-06T11:57:05.682Z,92.00
2022-11-06T11:59:38.999Z,91.60
2022-11-06T12:02:22.201Z,91.00
2022-11-06T12:04:58.969Z,91.00
2022-11-06T12:07:31.350Z,91.80
2022-11-06T12:10:01.158Z,92.10
2022-11-06T12:12:33.091Z,92.10
2022-11-06T12:15:19.307Z,92.00
2022-11-06T12:17:53.480Z,91.80
2022-11-06T12:20:27.447Z,93.10
2022-11-06T12:23:00.150Z,92.50
2022-11-06T12:25:35.399Z,88.50
2022-11-06T12:28:06.058Z,86.20
2022-11-06T12:30:36.234Z,87.70
2022-11-06T12:33:11.427Z,84.70
2022-11-06T12:35:44.974Z,83.80
2022-11-06T12:38:20.689Z,82.90
2022-11-06T12:40:53.352Z,87.30
2022-11-06T12:43:30.830Z,89.70
2022-11-06T12:46:15.403Z,82.80
2022-11-06T12:49:06.569Z,83.90
2022-11-06T12:51:48.927Z,83.10
2022-11-06T12:54:37.619Z,89.90
2022-11-06T12:57:15.048Z,82.30
2022-11-06T12:59:59.987Z,81.90
2022-11-06T13:02:46.894Z,81.30
2022-11-06T13:05:21.401Z,79.20
2022-11-06T13:08:13.943Z,79.80
2022-11-06T13:10:56.326Z,80.50
2022-11-06T13:13:36.256Z,82.80
2022-11-06T13:16:13.810Z,82.50
2022-11-06T13:18:52.886Z,89.80
2022-11-06T13:21:26.889Z,84.40
2022-11-06T13:24:03.886Z,90.50
2022-11-06T13:26:38.433Z,84.70
2022-11-06T13:29:11.203Z,84.10
2022-11-06T13:31:42.679Z,84.70
2022-11-06T13:34:20.495Z,84.40
2022-11-06T13:39:24.736Z,82.70
2022-11-06T13:41:54.883Z,84.10
2022-11-06T13:44:25.610Z,82.40
2022-11-06T13:47:00.196Z,82.20
2022-11-06T13:49:35.500Z,83.00
2022-11-06T13:52:10.245Z,83.80
2022-11-06T13:55:00.560Z,82.90
2022-11-06T13:58:04.373Z,83.10
2022-11-06T14:00:42.343Z,84.50
2022-11-06T14:03:47.631Z,84.70
2022-11-06T14:06:20.076Z,85.30
2022-11-06T14:08:52.624Z,84.40
2022-11-06T14:11:28.471Z,84.20
2022-11-06T14:14:02.935Z,87.50
2022-11-06T14:16:34.815Z,86.20
2022-11-06T14:19:10.724Z,83.80
2022-11-06T14:21:49.823Z,90.20
2022-11-06T14:24:41.345Z,87.20
2022-11-06T14:27:35.201Z,90.30
2022-11-06T14:31:10.506Z,91.00
2022-11-06T14:33:59.130Z,84.50
2022-11-06T14:36:37.023Z,84.90
2022-11-06T14:39:12.222Z,83.30
2022-11-06T14:41:56.674Z,83.80
2022-11-06T14:44:49.144Z,83.60
2022-11-06T14:47:30.986Z,83.80
2022-11-06T14:50:02.619Z,83.80
2022-11-06T14:52:41.830Z,89.10
2022-11-06T14:55:20.618Z,81.40
2022-11-06T14:57:56.385Z,84.60
2022-11-06T15:00:45.633Z,82.60
2022-11-06T15:03:34.341Z,82.70
2022-11-06T15:06:08.579Z,89.70
2022-11-06T15:09:00.476Z,81.10
2022-11-06T15:11:59.929Z,82.60
2022-11-06T15:14:57.452Z,83.20
2022-11-06T15:17:36.914Z,83.70
2022-11-06T15:20:28.689Z,84.20
2022-11-06T15:23:08.572Z,82.90
2022-11-06T15:25:50.489Z,83.90
2022-11-06T15:28:25.797Z,82.10
2022-11-06T15:31:01.508Z,78.10
2022-11-06T15:33:35.186Z,77.90
2022-11-06T15:36:08.539Z,75.50
2022-11-06T15:38:40.826Z,75.40
2022-11-06T15:41:15.648Z,76.70
2022-11-06T15:43:47.310Z,76.80
2022-11-06T15:46:24.972Z,75.40
2022-11-06T15:49:20.447Z,76.40
2022-11-06T15:51:54.815Z,78.40
2022-11-06T15:54:37.878Z,84.40
2022-11-06T15:57:14.744Z,79.90
2022-11-06T15:59:43.428Z,78.90
2022-11-06T16:02:17.448Z,79.80
2022-11-06T16:04:47.967Z,78.00
2022-11-06T16:07:19.189Z,79.60
2022-11-06T16:09:49.976Z,78.00
2022-11-06T16:12:19.915Z,76.80
2022-11-06T16:14:49.193Z,75.50
2022-11-06T16:17:20.128Z,75.20
2022-11-06T16:19:51.186Z,74.80
2022-11-06T16:22:23.171Z,75.00
2022-11-06T16:24:56.632Z,73.40
2022-11-06T16:27:27.618Z,74.40
2022-11-06T16:29:58.933Z,73.70
2022-11-06T16:32:30.616Z,73.00
2022-11-06T16:35:00.612Z,73.20
2022-11-06T16:37:39.020Z,72.20
2022-11-06T16:40:26.400Z,72.60
2022-11-06T16:43:05.170Z,71.30
2022-11-06T16:48:31.658Z,72.10
2022-11-06T16:51:03.948Z,71.40
2022-11-06T16:53:35.172Z,71.50
2022-11-06T16:56:06.476Z,72.10
2022-11-06T16:58:42.500Z,73.90
2022-11-06T17:03:49.608Z,72.60
2022-11-06T17:06:24.278Z,75.40
2022-11-06T17:09:07.838Z,75.40
2022-11-06T17:14:19.805Z,73.60
2022-11-06T17:16:50.639Z,76.10
2022-11-06T17:21:50.551Z,76.50
2022-11-06T17:37:04.910Z,87.10
2022-11-06T17:42:03.744Z,90.80
2022-11-06T17:54:33.497Z,80.40
2022-11-06T17:57:03.942Z,83.50
2022-11-06T18:11:58.818Z,79.70
2022-11-06T18:14:28.983Z,79.70
2022-11-06T18:19:27.236Z,80.20
2022-11-06T18:29:23.432Z,81.30
2022-11-06T18:41:48.681Z,81.10
2022-11-06T18:51:43.091Z,82.70
2022-11-06T18:54:12.597Z,82.60
2022-11-06T18:59:15.233Z,80.90
2022-11-06T19:06:40.973Z,81.20
2022-11-06T19:16:35.707Z,80.50
2022-11-06T19:19:05.456Z,82.50
2022-11-06T19:26:35.459Z,81.30
2022-11-06T19:29:04.483Z,85.40
2022-11-06T19:31:35.165Z,80.60
2022-11-06T19:34:04.017Z,86.10
2022-11-06T19:36:32.538Z,81.20
2022-11-06T19:41:30.375Z,81.10
2022-11-06T19:49:05.009Z,82.70
2022-11-06T19:51:33.840Z,80.60
2022-11-06T19:56:30.598Z,85.80
2022-11-06T19:58:59.042Z,81.90
2022-11-06T20:06:27.388Z,82.40
2022-11-06T20:16:22.345Z,82.70
2022-11-06T20:18:54.349Z,82.30
2022-11-06T20:21:23.400Z,83.90
2022-11-06T20:23:53.287Z,84.20
2022-11-06T20:26:21.734Z,83.40
2022-11-06T20:28:51.352Z,83.40
2022-11-06T20:31:20.449Z,83.20
2022-11-06T20:33:49.305Z,84.00
2022-11-06T20:36:20.530Z,84.40
2022-11-06T20:41:19.069Z,84.70
2022-11-06T20:46:16.960Z,85.50
2022-11-06T20:51:16.003Z,87.80
2022-11-06T20:56:14.858Z,86.50
2022-11-06T20:58:44.931Z,86.90
2022-11-06T21:01:17.298Z,87.60
2022-11-06T21:03:46.483Z,90.50
2022-11-06T21:08:43.581Z,87.90
2022-11-06T21:11:13.510Z,88.90
2022-11-06T21:13:44.316Z,93.10
2022-11-06T21:16:15.060Z,89.40
2022-11-06T21:21:13.616Z,91.70
2022-11-06T21:23:42.482Z,90.10
2022-11-06T21:26:13.733Z,90.30
2022-11-06T21:28:44.409Z,91.00
2022-11-06T21:31:14.651Z,90.90
2022-11-06T21:33:44.924Z,91.90
2022-11-06T21:36:14.986Z,92.90
2022-11-06T21:38:43.682Z,92.00
2022-11-06T21:41:14.577Z,92.40
2022-11-06T21:43:44.664Z,92.40
2022-11-06T21:46:13.882Z,93.00
2022-11-06T21:48:47.204Z,92.60
2022-11-06T21:51:18.394Z,93.20
2022-11-06T21:59:04.720Z,93.70
2022-11-06T22:01:33.456Z,93.90
2022-11-06T22:06:30.846Z,97.90
2022-11-06T22:09:01.038Z,94.80
2022-11-06T22:11:30.748Z,94.70
2022-11-06T22:14:00.716Z,95.00
2022-11-06T22:16:32.056Z,95.40
2022-11-06T22:21:30.026Z,95.60
2022-11-06T22:23:58.518Z,95.60
2022-11-06T22:26:29.126Z,95.70
2022-11-06T22:28:59.095Z,95.80
2022-11-06T22:31:30.069Z,95.50
2022-11-06T22:36:27.193Z,96.10
2022-11-06T22:41:25.236Z,97.00
2022-11-06T22:46:23.820Z,96.90
2022-11-06T22:48:53.992Z,97.60
2022-11-06T22:51:24.373Z,97.30
2022-11-06T22:56:22.527Z,97.50
2022-11-06T22:58:54.807Z,97.80
2022-11-06T23:01:23.942Z,98.00
2022-11-06T23:03:56.743Z,98.00
2022-11-06T23:06:26.316Z,98.50
2022-11-06T23:11:24.471Z,99.20
2022-11-06T23:16:43.593Z,99.10
2022-11-06T23:19:16.246Z,99.10
2022-11-06T23:26:42.910Z,99.90
2022-11-06T23:34:09.563Z,99.90
2022-11-06T23:36:38.997Z,99.90
2022-11-06T23:44:33.081Z,99.90
2022-11-06T23:47:01.619Z,99.90
2022-11-06T23:51:59.690Z,99.90
